Time;durP1;ratioP1;P1;durP2;ratioP2;P2;SDS_P1;SDS_P2;PMS_P1;PMS_P2;Temp;Humidity;BMP_temperature;BMP_pressure;BME280_temperature;BME280_humidity;BME280_pressure;Samples;Min_cycle;Max_cycle;Signal;HPM_P1;HPM_P2
2022/06/27 00:00:18;;;;;;;0.70;0.70;;;20.60;99.90;;;;;;4939489;29;20030;-92
2022/06/27 00:02:44;;;;;;;0.10;0.10;;;20.50;99.90;;;;;;4939261;29;20356;-94
2022/06/27 00:05:11;;;;;;;0.22;0.22;;;20.50;99.90;;;;;;4956449;29;20430;-93
2022/06/27 00:07:38;;;;;;;0.52;0.43;;;20.40;99.90;;;;;;4939448;29;20047;-93
2022/06/27 00:10:05;;;;;;;0.60;0.17;;;20.40;99.90;;;;;;4939223;29;20109;-93
2022/06/27 00:12:31;;;;;;;0.10;0.10;;;20.40;99.90;;;;;;4938968;29;20479;-93
2022/06/27 00:14:58;;;;;;;0.57;0.57;;;20.30;99.90;;;;;;4924237;29;20434;-92
2022/06/27 00:17:27;;;;;;;0.30;0.30;;;20.20;99.90;;;;;;4936123;29;20043;-92
2022/06/27 00:19:54;;;;;;;0.20;0.20;;;20.20;99.90;;;;;;4937237;29;20028;-93
2022/06/27 00:22:20;;;;;;;0.10;0.10;;;20.20;99.90;;;;;;4904617;29;20028;-93
2022/06/27 00:24:47;;;;;;;0.15;0.15;;;20.20;99.90;;;;;;4936982;29;20032;-92
2022/06/27 00:27:13;;;;;;;0.63;0.63;;;20.20;99.90;;;;;;4936264;29;20032;-92
2022/06/27 00:29:40;;;;;;;0.20;0.20;;;20.10;99.90;;;;;;4904435;29;20032;-93
2022/06/27 00:32:07;;;;;;;0.20;0.20;;;20.10;99.90;;;;;;4937032;29;20023;-93
2022/06/27 00:34:33;;;;;;;0.40;0.40;;;20.10;99.90;;;;;;4920203;29;20115;-93
2022/06/27 00:37:00;;;;;;;0.50;0.50;;;20.10;99.90;;;;;;4936912;29;20047;-93
2022/06/27 00:39:27;;;;;;;0.25;0.25;;;20.30;99.90;;;;;;4937228;29;20040;-93
2022/06/27 00:41:54;;;;;;;0.63;0.63;;;20.30;99.90;;;;;;4937195;29;20035;-94
2022/06/27 00:44:33;;;;;;;0.25;0.15;;;20.40;99.90;;;;;;4936020;29;20024;-93
2022/06/27 00:46:59;;;;;;;0.57;0.40;;;20.40;99.90;;;;;;4936873;29;20028;-92
2022/06/27 00:49:25;;;;;;;0.57;0.57;;;20.50;99.90;;;;;;4923463;29;20032;-94
2022/06/27 00:51:51;;;;;;;0.98;0.32;;;20.50;99.90;;;;;;4939156;29;20038;-94
2022/06/27 00:54:18;;;;;;;0.03;0.03;;;20.50;99.90;;;;;;4940332;29;20028;-92
2022/06/27 00:56:44;;;;;;;0.20;0.20;;;20.50;99.90;;;;;;4938903;29;20053;-93
2022/06/27 00:59:09;;;;;;;1.85;0.10;;;20.50;99.90;;;;;;4939373;29;20024;-92
2022/06/27 01:01:35;;;;;;;0.60;0.60;;;20.40;99.90;;;;;;4939133;29;20040;-93
2022/06/27 01:04:01;;;;;;;0.45;0.45;;;20.40;99.90;;;;;;4940247;29;20066;-93
2022/06/27 01:06:28;;;;;;;0.32;0.32;;;20.40;99.90;;;;;;4940017;29;20040;-93
2022/06/27 01:08:55;;;;;;;0.10;0.10;;;20.30;99.90;;;;;;4939988;29;20104;-93
2022/06/27 01:11:21;;;;;;;0.45;0.45;;;20.30;99.90;;;;;;4923284;29;20024;-93
2022/06/27 01:13:48;;;;;;;0.08;0.08;;;20.20;99.90;;;;;;4938773;29;20032;-94
2022/06/27 01:16:16;;;;;;;0.00;0.00;;;20.10;99.90;;;;;;4923161;29;20543;-92
2022/06/27 01:18:43;;;;;;;0.43;0.43;;;20.10;99.90;;;;;;4938899;29;20114;-93
2022/06/27 01:21:17;;;;;;;0.38;0.38;;;20.00;99.90;;;;;;4922717;29;20111;-93
2022/06/27 01:23:43;;;;;;;0.47;0.47;;;20.00;99.90;;;;;;4938416;29;20045;-92
2022/06/27 01:26:09;;;;;;;0.90;0.75;;;19.90;99.90;;;;;;4938582;29;20040;-92
2022/06/27 01:28:35;;;;;;;0.98;0.80;;;19.90;99.90;;;;;;4907609;29;20056;-93
2022/06/27 01:31:01;;;;;;;0.22;0.22;;;19.90;99.90;;;;;;4938775;29;20019;-92
2022/06/27 01:33:26;;;;;;;0.70;0.70;;;19.90;99.90;;;;;;4938236;29;20050;-93
2022/06/27 01:36:41;;;;;;;0.38;0.30;;;19.90;99.90;;;;;;4923003;29;20020;-93
2022/06/27 01:38:38;;;;;;;0.90;0.75;;;20.00;99.90;;;;;;4939717;29;20031;-94
2022/06/27 01:41:04;;;;;;;0.20;0.20;;;20.00;99.90;;;;;;4922722;29;20028;-94
2022/06/27 01:43:29;;;;;;;0.52;0.52;;;20.00;99.90;;;;;;4922895;29;20052;-94
2022/06/27 01:45:55;;;;;;;0.30;0.30;;;20.00;99.90;;;;;;4938312;29;20030;-93
2022/06/27 01:48:22;;;;;;;0.17;0.17;;;19.90;99.90;;;;;;4938099;29;20031;-94
2022/06/27 01:50:50;;;;;;;0.08;0.08;;;19.90;99.90;;;;;;4938056;29;20058;-93
2022/06/27 01:53:17;;;;;;;0.10;0.10;;;19.80;99.90;;;;;;4938271;29;20471;-93
2022/06/27 01:55:44;;;;;;;0.50;0.50;;;19.80;99.90;;;;;;4922844;29;20086;-93
2022/06/27 01:58:10;;;;;;;6.55;1.15;;;19.70;99.90;;;;;;4938001;29;20063;-93
2022/06/27 02:00:37;;;;;;;0.73;0.10;;;19.70;99.90;;;;;;4936861;29;20216;-95
2022/06/27 02:03:03;;;;;;;0.20;0.20;;;19.60;99.90;;;;;;4939614;29;20035;-94
2022/06/27 02:05:30;;;;;;;0.73;0.73;;;19.70;99.90;;;;;;4922332;29;20398;-93
2022/06/27 02:07:58;;;;;;;0.73;0.35;;;19.70;99.90;;;;;;4937848;29;20032;-92
2022/06/27 02:10:24;;;;;;;0.40;0.38;;;19.70;99.90;;;;;;4937613;29;20023;-93
2022/06/27 02:12:50;;;;;;;0.95;0.95;;;19.80;99.90;;;;;;4922401;29;20095;-93
2022/06/27 02:15:16;;;;;;;1.25;1.15;;;19.80;99.90;;;;;;4906673;29;20027;-92
2022/06/27 02:17:43;;;;;;;0.65;0.50;;;19.80;99.90;;;;;;4906127;29;20056;-93
2022/06/27 02:20:09;;;;;;;0.20;0.20;;;19.90;99.90;;;;;;4937878;29;20036;-93
2022/06/27 02:22:36;;;;;;;0.10;0.10;;;19.90;99.90;;;;;;4938650;29;20059;-93
2022/06/27 02:25:02;;;;;;;0.35;0.35;;;19.90;99.90;;;;;;4938708;29;20062;-93
2022/06/27 02:27:31;;;;;;;0.20;0.20;;;20.00;99.90;;;;;;4937730;29;20143;-92
2022/06/27 02:29:57;;;;;;;0.40;0.40;;;19.90;99.90;;;;;;4922255;29;20032;-93
2022/06/27 02:32:24;;;;;;;0.75;0.75;;;20.00;99.90;;;;;;4938458;29;20032;-93
2022/06/27 02:34:50;;;;;;;0.50;0.28;;;20.00;99.90;;;;;;4937177;29;20020;-93
2022/06/27 02:37:18;;;;;;;0.28;0.28;;;20.10;99.90;;;;;;4937439;29;20028;-92
2022/06/27 02:39:45;;;;;;;0.43;0.43;;;20.10;99.90;;;;;;4937647;29;20032;-93
2022/06/27 02:42:13;;;;;;;0.20;0.20;;;20.20;99.90;;;;;;4921909;29;20032;-93
2022/06/27 02:44:39;;;;;;;0.20;0.20;;;20.20;99.90;;;;;;4937679;29;20398;-92
2022/06/27 02:47:06;;;;;;;0.75;0.75;;;20.20;99.90;;;;;;4938346;29;20505;-92
2022/06/27 02:49:32;;;;;;;1.23;1.17;;;20.20;99.90;;;;;;4937333;29;20031;-93
2022/06/27 02:52:18;;;;;;;0.57;0.57;;;20.30;99.90;;;;;;4937248;29;20031;-93
2022/06/27 02:55:01;;;;;;;0.52;0.52;;;20.30;99.90;;;;;;4937313;29;20036;-92
2022/06/27 02:57:39;;;;;;;0.43;0.43;;;20.30;99.90;;;;;;4938116;29;20035;-92
2022/06/27 03:00:07;;;;;;;0.32;0.32;;;20.40;99.90;;;;;;4936884;29;20489;-92
2022/06/27 03:02:35;;;;;;;0.35;0.35;;;20.40;99.90;;;;;;4937000;29;20066;-93
2022/06/27 03:05:03;;;;;;;0.40;0.40;;;20.40;99.90;;;;;;4938035;29;20059;-92
2022/06/27 03:07:29;;;;;;;0.95;0.65;;;20.50;99.90;;;;;;4937695;29;20040;-92
2022/06/27 03:10:02;;;;;;;1.17;0.95;;;20.60;99.90;;;;;;4936799;29;20061;-93
2022/06/27 03:12:27;;;;;;;0.22;0.22;;;20.60;99.90;;;;;;4921266;29;20032;-92
2022/06/27 03:14:54;;;;;;;0.10;0.10;;;20.60;99.90;;;;;;4937175;29;20103;-92
2022/06/27 03:17:19;;;;;;;0.90;0.90;;;20.70;99.90;;;;;;4936218;29;20451;-93
2022/06/27 03:19:45;;;;;;;0.68;0.68;;;20.70;99.90;;;;;;4936524;29;20028;-92
2022/06/27 03:22:11;;;;;;;0.57;0.57;;;20.70;99.90;;;;;;4936454;29;20043;-92
2022/06/27 03:24:37;;;;;;;0.38;0.38;;;20.80;99.90;;;;;;4921058;29;20107;-92
2022/06/27 03:27:05;;;;;;;0.45;0.45;;;20.80;99.90;;;;;;4935978;29;20040;-93
2022/06/27 03:29:30;;;;;;;0.20;0.20;;;20.80;99.90;;;;;;4920723;29;20119;-92
2022/06/27 03:31:56;;;;;;;0.32;0.32;;;20.90;99.90;;;;;;4936640;29;20059;-93
2022/06/27 03:34:22;;;;;;;0.28;0.28;;;20.90;99.90;;;;;;4936188;29;20027;-92
2022/06/27 03:36:48;;;;;;;1.23;0.90;;;21.00;99.90;;;;;;4936676;29;20391;-92
2022/06/27 03:39:14;;;;;;;0.75;0.47;;;21.00;99.90;;;;;;4936547;29;20028;-93
2022/06/27 03:41:39;;;;;;;0.95;0.73;;;21.10;99.90;;;;;;4936229;29;20394;-92
2022/06/27 03:44:09;;;;;;;0.65;0.40;;;21.10;99.90;;;;;;4936380;29;20031;-92
2022/06/27 03:46:38;;;;;;;0.50;0.50;;;21.20;99.90;;;;;;4936403;29;20046;-93
2022/06/27 03:51:48;;;;;;;0.52;0.52;;;21.30;99.90;;;;;;4937500;29;20030;-93
2022/06/27 03:54:15;;;;;;;1.55;0.82;;;21.40;99.90;;;;;;4937610;29;20386;-91
2022/06/27 03:56:41;;;;;;;0.20;0.20;;;21.40;99.90;;;;;;4936349;29;20027;-93
2022/06/27 03:59:07;;;;;;;0.70;0.70;;;21.40;99.90;;;;;;4936130;29;20551;-93
2022/06/27 04:01:33;;;;;;;0.38;0.38;;;21.50;99.90;;;;;;4936118;29;20042;-93
2022/06/27 04:03:59;;;;;;;0.80;0.80;;;21.60;99.90;;;;;;4935891;29;20043;-94
2022/06/27 04:06:25;;;;;;;0.73;0.73;;;21.60;99.90;;;;;;4936595;29;20095;-93
2022/06/27 04:08:51;;;;;;;0.28;0.28;;;21.70;99.90;;;;;;4935983;29;20050;-93
2022/06/27 04:11:17;;;;;;;0.57;0.57;;;21.80;99.90;;;;;;4920892;29;20028;-94
2022/06/27 04:13:44;;;;;;;1.40;1.27;;;21.90;99.90;;;;;;4935806;29;20471;-94
2022/06/27 04:16:10;;;;;;;0.70;0.70;;;22.00;99.90;;;;;;4936141;29;20020;-94
2022/06/27 04:18:37;;;;;;;1.27;1.20;;;22.00;99.90;;;;;;4935806;29;20044;-94
2022/06/27 04:21:03;;;;;;;0.98;0.80;;;22.00;99.90;;;;;;4920170;29;20039;-94
2022/06/27 04:23:29;;;;;;;0.82;0.82;;;22.20;99.90;;;;;;4937879;29;20062;-94
2022/06/27 04:25:55;;;;;;;0.52;0.52;;;22.30;99.90;;;;;;4939572;29;20403;-93
2022/06/27 04:28:20;;;;;;;0.98;0.90;;;22.40;99.90;;;;;;4939680;29;20042;-93
2022/06/27 04:30:47;;;;;;;1.38;0.70;;;22.50;99.90;;;;;;4939401;29;20023;-92
2022/06/27 04:33:14;;;;;;;1.02;1.02;;;22.50;99.90;;;;;;4939548;29;20075;-92
2022/06/27 04:35:41;;;;;;;0.65;0.65;;;22.60;99.90;;;;;;4939595;29;20470;-91
2022/06/27 04:38:07;;;;;;;0.80;0.80;;;22.70;99.90;;;;;;4939711;29;20590;-92
2022/06/27 04:40:33;;;;;;;1.58;0.80;;;22.80;99.90;;;;;;4939498;29;20035;-90
2022/06/27 04:42:59;;;;;;;1.02;1.02;;;22.90;99.90;;;;;;4939475;29;20554;-92
2022/06/27 04:45:26;;;;;;;0.55;0.43;;;23.00;99.90;;;;;;4923676;29;20068;-91
2022/06/27 04:47:52;;;;;;;0.60;0.60;;;23.20;99.90;;;;;;4923571;29;20032;-92
2022/06/27 04:50:21;;;;;;;1.25;1.15;;;23.30;99.90;;;;;;4940635;29;20024;-92
2022/06/27 04:52:49;;;;;;;0.63;0.55;;;23.40;99.90;;;;;;4940567;29;20031;-91
2022/06/27 04:55:15;;;;;;;0.20;0.20;;;23.40;99.90;;;;;;4924216;29;20039;-91
2022/06/27 04:57:43;;;;;;;0.70;0.70;;;23.60;99.90;;;;;;4939283;29;20030;-89
2022/06/27 05:00:12;;;;;;;0.30;0.30;;;23.70;98.70;;;;;;4939182;29;20522;-91
2022/06/27 05:02:38;;;;;;;1.85;0.50;;;23.80;99.70;;;;;;4941536;29;20382;-91
2022/06/27 05:05:04;;;;;;;1.00;0.98;;;23.90;99.10;;;;;;4938804;29;20028;-90
2022/06/27 05:07:30;;;;;;;0.80;0.65;;;24.00;98.80;;;;;;4938345;29;20063;-91
2022/06/27 05:09:57;;;;;;;0.60;0.60;;;24.00;98.70;;;;;;4938966;29;20027;-91
2022/06/27 05:12:24;;;;;;;1.58;1.20;;;24.00;98.40;;;;;;4938848;29;20030;-91
2022/06/27 05:14:50;;;;;;;1.70;0.90;;;24.10;98.40;;;;;;4923190;29;20028;-90
2022/06/27 05:17:16;;;;;;;1.33;0.77;;;24.10;98.30;;;;;;4923090;29;20044;-90
2022/06/27 05:19:42;;;;;;;0.40;0.30;;;24.20;97.80;;;;;;4938892;29;20027;-91
2022/06/27 05:22:08;;;;;;;0.45;0.38;;;24.20;97.90;;;;;;4938659;29;20471;-91
2022/06/27 05:24:34;;;;;;;1.08;0.75;;;24.30;98.10;;;;;;4922856;29;20035;-91
2022/06/27 05:27:00;;;;;;;0.50;0.50;;;24.40;97.20;;;;;;4938693;29;20037;-91
2022/06/27 05:29:27;;;;;;;0.65;0.65;;;24.50;97.80;;;;;;4938597;29;20036;-91
2022/06/27 05:31:52;;;;;;;0.28;0.25;;;24.60;97.80;;;;;;4923072;29;20039;-90
2022/06/27 05:34:18;;;;;;;0.65;0.65;;;24.70;97.20;;;;;;4938420;29;20024;-91
2022/06/27 05:36:44;;;;;;;0.25;0.25;;;24.90;97.30;;;;;;4938487;29;20058;-92
2022/06/27 05:39:10;;;;;;;0.30;0.30;;;25.00;97.40;;;;;;4939505;29;20031;-91
2022/06/27 05:41:36;;;;;;;0.60;0.60;;;25.10;97.40;;;;;;4937848;29;20083;-91
2022/06/27 05:44:03;;;;;;;0.47;0.47;;;25.20;96.80;;;;;;4938407;29;20103;-91
2022/06/27 05:46:29;;;;;;;1.05;1.05;;;25.30;96.10;;;;;;4939365;29;20036;-90
2022/06/27 05:48:57;;;;;;;0.47;0.35;;;25.20;95.00;;;;;;4939617;29;20092;-92
2022/06/27 05:51:23;;;;;;;0.60;0.60;;;25.20;95.30;;;;;;4922518;29;20040;-90
2022/06/27 05:53:50;;;;;;;0.30;0.30;;;25.20;95.30;;;;;;4938256;29;20122;-91
2022/06/27 05:56:17;;;;;;;0.75;0.75;;;25.30;95.10;;;;;;4939387;29;20098;-90
2022/06/27 05:58:43;;;;;;;1.13;0.55;;;25.20;95.20;;;;;;4938129;29;20028;-91
2022/06/27 06:01:10;;;;;;;0.43;0.43;;;25.30;95.10;;;;;;4939429;29;20040;-90
2022/06/27 06:03:37;;;;;;;1.02;0.93;;;25.40;94.90;;;;;;4938154;29;20091;-90
2022/06/27 06:06:04;;;;;;;0.52;0.52;;;25.30;94.60;;;;;;4938047;29;20036;-90
2022/06/27 06:08:31;;;;;;;0.90;0.90;;;25.40;94.40;;;;;;4937834;29;20027;-92
2022/06/27 06:10:57;;;;;;;0.30;0.30;;;25.40;94.40;;;;;;4939326;29;20054;-92
2022/06/27 06:13:25;;;;;;;0.20;0.20;;;25.50;95.60;;;;;;4939918;29;20028;-89
2022/06/27 06:15:52;;;;;;;0.70;0.68;;;25.60;94.60;;;;;;4939095;29;20031;-90
2022/06/27 06:18:19;;;;;;;0.25;0.25;;;25.70;94.30;;;;;;4952798;29;20055;-91
2022/06/27 06:20:45;;;;;;;0.90;0.68;;;25.80;94.40;;;;;;4941082;29;20027;-92
2022/06/27 06:23:11;;;;;;;0.30;0.30;;;25.80;94.10;;;;;;4957887;29;20118;-91
2022/06/27 06:25:37;;;;;;;1.05;0.98;;;25.80;94.30;;;;;;4941053;29;20028;-91
2022/06/27 06:28:03;;;;;;;0.82;0.68;;;25.80;94.50;;;;;;4940505;29;20043;-92
2022/06/27 06:30:31;;;;;;;0.55;0.35;;;25.90;94.00;;;;;;4940363;29;20057;-92
2022/06/27 06:33:02;;;;;;;0.73;0.73;;;25.90;94.00;;;;;;4925141;29;20030;-95
2022/06/27 06:35:29;;;;;;;0.93;0.93;;;25.90;94.00;;;;;;4925456;29;20479;-93
2022/06/27 06:37:57;;;;;;;0.47;0.47;;;26.00;94.20;;;;;;4957624;29;20103;-94
2022/06/27 06:40:23;;;;;;;0.40;0.38;;;26.00;93.60;;;;;;4941259;29;20044;-95
2022/06/27 06:42:49;;;;;;;0.65;0.65;;;26.10;94.50;;;;;;4940142;29;20027;-95
2022/06/27 06:45:14;;;;;;;1.23;0.60;;;26.20;94.30;;;;;;4940154;29;20541;-95
2022/06/27 06:47:49;;;;;;;1.38;1.38;;;26.30;93.80;;;;;;4940175;29;20549;-95
2022/06/27 06:50:18;;;;;;;4.03;1.08;;;26.40;93.70;;;;;;4925171;29;20449;-95
2022/06/27 06:52:46;;;;;;;0.30;0.30;;;26.50;93.10;;;;;;4957703;29;20027;-94
2022/06/27 06:55:13;;;;;;;0.30;0.30;;;26.60;93.00;;;;;;4940336;29;20047;-94
2022/06/27 06:57:39;;;;;;;1.30;0.50;;;26.50;92.40;;;;;;4940589;29;20066;-94
2022/06/27 07:00:07;;;;;;;0.47;0.47;;;26.70;92.70;;;;;;4924375;29;20074;-93
2022/06/27 07:02:33;;;;;;;1.17;0.73;;;26.80;92.40;;;;;;4940149;29;20035;-94
2022/06/27 07:05:02;;;;;;;0.45;0.45;;;26.70;92.40;;;;;;4924660;29;20137;-95
2022/06/27 07:07:28;;;;;;;0.43;0.43;;;26.80;92.10;;;;;;4940253;29;20474;-94
2022/06/27 07:09:54;;;;;;;0.60;0.60;;;26.90;92.20;;;;;;4940072;29;20042;-94
2022/06/27 07:12:21;;;;;;;2.78;0.38;;;27.00;92.30;;;;;;4940015;29;20031;-93
2022/06/27 07:14:47;;;;;;;2.30;1.35;;;27.20;92.70;;;;;;4940131;29;20023;-93
2022/06/27 07:17:13;;;;;;;0.75;0.65;;;27.20;91.40;;;;;;4924466;29;20478;-95
2022/06/27 07:19:39;;;;;;;0.38;0.35;;;27.30;91.30;;;;;;4925271;29;20047;-93
2022/06/27 07:22:06;;;;;;;0.43;0.43;;;27.50;91.20;;;;;;4940161;29;20059;-95
2022/06/27 07:24:32;;;;;;;0.65;0.63;;;27.50;90.70;;;;;;4956761;29;20040;-93
2022/06/27 07:26:59;;;;;;;0.43;0.28;;;27.50;90.40;;;;;;4939429;29;20035;-91
2022/06/27 07:29:29;;;;;;;0.50;0.50;;;27.50;90.40;;;;;;4939592;29;20031;-90
2022/06/27 07:31:55;;;;;;;0.90;0.90;;;27.40;90.10;;;;;;4939760;29;20529;-91
2022/06/27 07:34:21;;;;;;;0.68;0.68;;;27.50;90.10;;;;;;4939642;29;20030;-89
2022/06/27 07:36:48;;;;;;;0.55;0.55;;;27.50;91.10;;;;;;4939354;29;20463;-90
2022/06/27 07:39:14;;;;;;;0.68;0.68;;;27.60;89.20;;;;;;4939574;29;20031;-91
2022/06/27 07:41:40;;;;;;;1.33;1.30;;;27.60;89.70;;;;;;4939504;29;20023;-94
2022/06/27 07:44:06;;;;;;;1.15;1.05;;;27.60;90.10;;;;;;4939235;29;20034;-92
2022/06/27 07:46:34;;;;;;;0.55;0.52;;;27.70;90.00;;;;;;4939241;29;20023;-92
2022/06/27 07:49:00;;;;;;;0.45;0.45;;;27.80;88.80;;;;;;4939376;29;20179;-91
2022/06/27 07:51:26;;;;;;;1.05;1.00;;;27.80;90.20;;;;;;4939658;29;20046;-91
2022/06/27 07:53:52;;;;;;;1.20;1.15;;;27.90;88.50;;;;;;4939224;29;20023;-91
2022/06/27 07:56:20;;;;;;;0.17;0.17;;;27.90;88.10;;;;;;4939564;28;20030;-92
2022/06/27 07:58:48;;;;;;;0.15;0.15;;;27.90;85.80;;;;;;4954129;29;20122;-91
2022/06/27 08:01:16;;;;;;;0.40;0.40;;;28.00;86.20;;;;;;4939269;29;20043;-92
2022/06/27 08:03:44;;;;;;;0.75;0.73;;;28.00;86.30;;;;;;4939318;29;20118;-92
2022/06/27 08:06:20;;;;;;;0.63;0.63;;;28.10;86.40;;;;;;4939542;29;20474;-92
2022/06/27 08:08:52;;;;;;;0.60;0.60;;;28.20;87.10;;;;;;4923666;29;20045;-92
2022/06/27 08:11:30;;;;;;;0.17;0.17;;;28.30;85.10;;;;;;4939382;29;20054;-92
2022/06/27 08:14:03;;;;;;;0.82;0.82;;;28.40;84.70;;;;;;4956044;29;20035;-91
2022/06/27 08:16:30;;;;;;;2.13;0.65;;;28.40;83.40;;;;;;4923743;29;20031;-92
2022/06/27 08:18:56;;;;;;;0.47;0.47;;;28.40;83.10;;;;;;4939177;29;20043;-94
2022/06/27 08:21:27;;;;;;;7.13;0.85;;;28.30;82.00;;;;;;4938948;29;20065;-93
2022/06/27 08:23:56;;;;;;;0.38;0.30;;;28.40;83.10;;;;;;4939250;29;20020;-93
2022/06/27 08:26:23;;;;;;;0.20;0.20;;;28.40;82.00;;;;;;4939298;29;20023;-93
2022/06/27 08:28:50;;;;;;;0.40;0.40;;;28.40;80.90;;;;;;4939359;29;20054;-91
2022/06/27 08:31:18;;;;;;;0.35;0.35;;;28.40;80.90;;;;;;4939001;29;20109;-93
2022/06/27 08:33:45;;;;;;;0.40;0.40;;;28.40;80.90;;;;;;4939493;29;20110;-92
2022/06/27 08:36:15;;;;;;;0.20;0.20;;;28.40;79.40;;;;;;4938914;29;20082;-92
2022/06/27 08:38:50;;;;;;;0.10;0.10;;;28.50;81.10;;;;;;4939133;29;20470;-91
2022/06/27 08:41:17;;;;;;;0.28;0.28;;;28.50;79.00;;;;;;4939113;29;20039;-92
2022/06/27 08:43:43;;;;;;;0.60;0.60;;;28.50;77.70;;;;;;4939065;29;20051;-91
2022/06/27 08:46:16;;;;;;;1.00;1.00;;;28.60;77.70;;;;;;4956083;29;20035;-92
2022/06/27 08:48:45;;;;;;;0.82;0.82;;;28.70;79.50;;;;;;4938721;29;20386;-93
2022/06/27 08:51:12;;;;;;;0.20;0.20;;;28.80;77.70;;;;;;4938757;29;20028;-91
2022/06/27 08:53:39;;;;;;;0.45;0.45;;;28.80;77.50;;;;;;4938650;29;20034;-91
2022/06/27 08:56:09;;;;;;;0.60;0.45;;;28.90;76.70;;;;;;4938766;29;20019;-93
2022/06/27 08:58:37;;;;;;;0.40;0.40;;;29.00;76.20;;;;;;4923721;29;20114;-93
2022/06/27 09:01:04;;;;;;;0.35;0.35;;;29.00;75.00;;;;;;4939057;29;20035;-92
2022/06/27 09:03:32;;;;;;;0.43;0.43;;;29.10;77.00;;;;;;4938623;29;20121;-93
2022/06/27 09:06:06;;;;;;;0.30;0.30;;;29.10;75.60;;;;;;4938991;29;20501;-93
2022/06/27 09:08:36;;;;;;;0.90;0.90;;;29.10;72.90;;;;;;4938808;29;20039;-93
2022/06/27 09:11:03;;;;;;;0.00;0.00;;;29.10;74.90;;;;;;4942320;29;20023;-91
2022/06/27 09:13:29;;;;;;;0.30;0.30;;;29.10;73.60;;;;;;4941892;29;20032;-93
2022/06/27 09:16:04;;;;;;;0.38;0.35;;;29.10;71.40;;;;;;4941953;29;20024;-94
2022/06/27 09:18:34;;;;;;;0.68;0.68;;;29.20;72.30;;;;;;4942517;29;20439;-93
2022/06/27 09:21:06;;;;;;;0.35;0.30;;;29.10;71.80;;;;;;4942232;29;20031;-94
2022/06/27 09:24:00;;;;;;;0.60;0.60;;;29.20;70.40;;;;;;4942184;29;20050;-92
2022/06/27 09:26:35;;;;;;;0.90;0.38;;;29.30;70.70;;;;;;4958326;29;20490;-92
2022/06/27 09:29:12;;;;;;;0.25;0.25;;;29.30;71.30;;;;;;4942248;29;20427;-92
2022/06/27 09:31:48;;;;;;;0.20;0.20;;;29.40;69.50;;;;;;4926618;29;20086;-94
2022/06/27 09:34:16;;;;;;;0.80;0.30;;;29.30;68.40;;;;;;4941992;29;20108;-93
2022/06/27 09:36:45;;;;;;;0.65;0.65;;;29.40;71.00;;;;;;4958162;29;20023;-92
2022/06/27 09:39:39;;;;;;;0.43;0.43;;;29.50;67.50;;;;;;4942933;29;20538;-93
2022/06/27 09:42:13;;;;;;;0.60;0.60;;;29.60;69.90;;;;;;4958992;29;20394;-92
2022/06/27 09:44:41;;;;;;;0.40;0.40;;;29.50;67.60;;;;;;4941728;29;20216;-94
2022/06/27 09:47:17;;;;;;;0.50;0.50;;;29.60;66.60;;;;;;4925908;29;20035;-94
2022/06/27 09:49:46;;;;;;;0.15;0.15;;;29.60;68.30;;;;;;4959114;29;20034;-94
2022/06/27 09:52:21;;;;;;;0.97;0.97;;;29.50;67.90;;;;;;4941357;29;20023;-93
2022/06/27 09:54:50;;;;;;;3.30;0.65;;;29.50;69.00;;;;;;4958421;29;20381;-93
2022/06/27 09:57:21;;;;;;;0.17;0.17;;;29.50;66.90;;;;;;4958832;29;20027;-95
2022/06/27 09:59:49;;;;;;;0.45;0.45;;;29.50;68.80;;;;;;4941660;29;20038;-93
2022/06/27 10:02:16;;;;;;;0.28;0.28;;;29.60;70.20;;;;;;4940885;29;20041;-92
2022/06/27 10:04:44;;;;;;;1.25;0.95;;;29.50;66.20;;;;;;4958595;29;20086;-94
2022/06/27 10:07:11;;;;;;;0.63;0.43;;;29.60;67.60;;;;;;4925529;29;20059;-94
2022/06/27 10:09:40;;;;;;;0.32;0.32;;;29.70;68.00;;;;;;4925547;29;20364;-94
2022/06/27 10:12:31;;;;;;;0.22;0.22;;;29.90;68.10;;;;;;4925812;29;20035;-91
2022/06/27 10:15:12;;;;;;;1.27;0.95;;;30.00;67.00;;;;;;4941194;29;20494;-92
2022/06/27 10:17:47;;;;;;;0.22;0.22;;;29.90;65.60;;;;;;4941194;29;20051;-92
2022/06/27 10:20:20;;;;;;;0.63;0.30;;;30.00;66.30;;;;;;4940087;29;20028;-94
2022/06/27 10:23:13;;;;;;;1.73;0.82;;;30.10;66.50;;;;;;4940728;29;20023;-93
2022/06/27 10:25:44;;;;;;;0.40;0.40;;;30.10;64.30;;;;;;4958482;29;20110;-96
2022/06/27 10:28:10;;;;;;;0.40;0.35;;;30.20;64.50;;;;;;4909761;29;20035;-96
2022/06/27 10:30:59;;;;;;;0.38;0.25;;;30.30;64.40;;;;;;4940976;29;20035;-95
2022/06/27 10:33:25;;;;;;;0.17;0.17;;;30.50;64.10;;;;;;4958198;29;20020;-95
2022/06/27 10:38:28;;;;;;;0.20;0.20;;;30.70;65.50;;;;;;4958406;29;20035;-94
2022/06/27 10:40:55;;;;;;;0.50;0.50;;;30.60;63.60;;;;;;4940554;29;20027;-94
2022/06/27 10:43:36;;;;;;;1.10;0.95;;;30.50;62.80;;;;;;4940459;29;20032;-95
2022/06/27 10:46:11;;;;;;;0.10;0.10;;;30.60;63.50;;;;;;4941136;29;20028;-94
2022/06/27 10:48:39;;;;;;;0.25;0.25;;;30.70;63.30;;;;;;4940587;29;20050;-93
2022/06/27 10:51:24;;;;;;;0.30;0.30;;;30.70;64.80;;;;;;4940719;29;20110;-93
2022/06/27 10:53:53;;;;;;;0.52;0.52;;;30.70;64.30;;;;;;4940410;29;20023;-93
2022/06/27 10:56:36;;;;;;;0.25;0.25;;;30.70;62.70;;;;;;4940737;29;20042;-93
2022/06/27 10:59:05;;;;;;;0.55;0.55;;;30.80;63.70;;;;;;4957413;29;20545;-92
2022/06/27 11:01:32;;;;;;;0.30;0.30;;;30.60;63.40;;;;;;4940462;29;20505;-94
2022/06/27 11:04:00;;;;;;;0.13;0.13;;;30.60;62.40;;;;;;4940486;29;20035;-91
2022/06/27 11:06:26;;;;;;;0.35;0.20;;;30.50;63.30;;;;;;4940366;29;20027;-93
2022/06/27 11:08:54;;;;;;;0.90;0.63;;;30.40;62.20;;;;;;4939718;29;20474;-94
2022/06/27 11:11:28;;;;;;;0.50;0.50;;;30.50;62.90;;;;;;4939755;29;20066;-94
2022/06/27 11:13:57;;;;;;;0.10;0.10;;;30.50;63.40;;;;;;4939993;29;20061;-94
2022/06/27 11:16:31;;;;;;;0.35;0.35;;;30.50;62.90;;;;;;4940074;29;20054;-92
2022/06/27 11:18:58;;;;;;;0.35;0.35;;;30.60;64.10;;;;;;4956658;29;20058;-94
2022/06/27 11:21:35;;;;;;;0.00;0.00;;;30.80;63.80;;;;;;4939936;29;20057;-95
2022/06/27 11:24:10;;;;;;;0.32;0.32;;;30.80;63.40;;;;;;4937215;29;20035;-94
2022/06/27 11:26:43;;;;;;;0.20;0.20;;;31.00;63.60;;;;;;4940123;29;20031;-94
2022/06/27 11:32:06;;;;;;;0.52;0.52;;;30.90;61.20;;;;;;4956845;28;20130;-92
2022/06/27 11:34:39;;;;;;;0.57;0.57;;;30.80;62.60;;;;;;4956806;29;20023;-91
2022/06/27 11:37:11;;;;;;;0.80;0.80;;;30.80;64.00;;;;;;4939593;29;20023;-93
2022/06/27 11:39:37;;;;;;;0.73;0.55;;;30.90;62.80;;;;;;4938777;29;20122;-91
2022/06/27 11:42:11;;;;;;;0.52;0.52;;;31.00;62.80;;;;;;4939295;29;20055;-92
2022/06/27 11:44:39;;;;;;;1.08;0.47;;;31.00;60.50;;;;;;4939814;29;20019;-92
2022/06/27 11:47:09;;;;;;;0.52;0.40;;;31.20;60.30;;;;;;4939465;29;20031;-93
2022/06/27 11:49:38;;;;;;;0.65;0.65;;;31.70;60.40;;;;;;4939307;29;20035;-92
2022/06/27 11:52:06;;;;;;;0.20;0.20;;;32.20;57.70;;;;;;4939371;29;20054;-91
2022/06/27 11:54:46;;;;;;;1.17;1.07;;;32.90;57.80;;;;;;4939624;29;20035;-91
2022/06/27 11:57:31;;;;;;;0.00;0.00;;;33.40;55.40;;;;;;4923891;29;20027;-93
2022/06/27 11:59:59;;;;;;;0.28;0.28;;;33.70;55.40;;;;;;4953795;29;20118;-92
2022/06/27 12:02:36;;;;;;;0.25;0.25;;;33.70;57.20;;;;;;4939519;29;20035;-95
2022/06/27 12:05:22;;;;;;;0.38;0.38;;;34.50;55.90;;;;;;4939431;29;20059;-93
2022/06/27 12:08:07;;;;;;;0.55;0.32;;;35.20;55.60;;;;;;4939442;29;20023;-95
2022/06/27 12:10:41;;;;;;;0.47;0.47;;;35.80;52.50;;;;;;4939652;29;20027;-94
2022/06/27 12:13:29;;;;;;;0.30;0.30;;;36.70;53.10;;;;;;4955061;29;20036;-92
2022/06/27 12:16:03;;;;;;;0.68;0.50;;;36.20;48.30;;;;;;4939198;29;20109;-94
2022/06/27 12:18:42;;;;;;;0.20;0.20;;;37.20;49.20;;;;;;4939131;29;20097;-94
2022/06/27 12:21:09;;;;;;;0.30;0.30;;;38.00;49.20;;;;;;4934973;29;20023;-94
2022/06/27 12:23:35;;;;;;;0.10;0.10;;;38.50;48.10;;;;;;4938907;29;20086;-94
2022/06/27 12:26:01;;;;;;;0.17;0.17;;;39.10;46.20;;;;;;4923091;29;20023;-94
2022/06/27 12:28:27;;;;;;;1.13;0.77;;;39.10;45.10;;;;;;4938959;29;20046;-92
2022/06/27 12:30:53;;;;;;;0.20;0.20;;;38.70;45.80;;;;;;4938970;29;20462;-93
2022/06/27 12:33:18;;;;;;;0.17;0.17;;;39.60;46.80;;;;;;4939105;29;20122;-94
2022/06/27 12:35:44;;;;;;;0.20;0.20;;;39.10;45.80;;;;;;4938973;29;20019;-94
2022/06/27 12:38:11;;;;;;;0.00;0.00;;;39.30;45.80;;;;;;4939184;29;20031;-94
2022/06/27 12:40:37;;;;;;;0.00;0.00;;;40.10;45.30;;;;;;4938867;29;20035;-93
2022/06/27 12:43:04;;;;;;;0.10;0.10;;;40.00;44.30;;;;;;4923526;29;20035;-95
2022/06/27 12:45:32;;;;;;;0.22;0.22;;;40.10;44.70;;;;;;4942508;29;20390;-94
2022/06/27 12:47:58;;;;;;;0.40;0.40;;;40.00;44.50;;;;;;4959858;29;20054;-96
2022/06/27 12:50:24;;;;;;;0.20;0.20;;;39.10;44.30;;;;;;4927366;29;20028;-95
2022/06/27 12:52:50;;;;;;;0.65;0.65;;;39.00;45.70;;;;;;4942618;29;20046;-96
2022/06/27 12:55:16;;;;;;;0.30;0.30;;;39.50;46.10;;;;;;4959851;29;20034;-95
2022/06/27 12:57:43;;;;;;;0.30;0.22;;;39.80;46.10;;;;;;4942324;29;20027;-96
2022/06/27 13:00:10;;;;;;;0.30;0.25;;;40.10;45.40;;;;;;4959921;29;20497;-96
2022/06/27 13:02:36;;;;;;;2.13;0.65;;;40.80;44.10;;;;;;4943289;29;20066;-95